sensor_id;sensor_type;location;lat;lon;timestamp;P1;durP1;ratioP1;P2;durP2;ratioP2
50745;SDS011;36711;51.972;21.204;2022-07-23T00:01:07;13.50;;;9.00;;
50745;SDS011;36711;51.972;21.204;2022-07-23T00:03:35;16.80;;;10.30;;
50745;SDS011;36711;51.972;21.204;2022-07-23T00:06:03;15.40;;;9.50;;
50745;SDS011;36711;51.972;21.204;2022-07-23T00:08:36;14.80;;;9.70;;
50745;SDS011;36711;51.972;21.204;2022-07-23T00:11:03;14.60;;;9.40;;
50745;SDS011;36711;51.972;21.204;2022-07-23T00:13:31;13.00;;;9.20;;
50745;SDS011;36711;51.972;21.204;2022-07-23T00:15:59;13.00;;;9.30;;
50745;SDS011;36711;51.972;21.204;2022-07-23T00:18:27;10.40;;;8.60;;
50745;SDS011;36711;51.972;21.204;2022-07-23T00:20:55;14.10;;;9.70;;
50745;SDS011;36711;51.972;21.204;2022-07-23T00:23:23;12.20;;;9.40;;
50745;SDS011;36711;51.972;21.204;2022-07-23T00:25:52;13.20;;;9.70;;
50745;SDS011;36711;51.972;21.204;2022-07-23T00:28:20;11.60;;;9.00;;
50745;SDS011;36711;51.972;21.204;2022-07-23T00:30:48;12.80;;;9.00;;
50745;SDS011;36711;51.972;21.204;2022-07-23T00:33:16;15.00;;;9.30;;
50745;SDS011;36711;51.972;21.204;2022-07-23T00:35:44;15.10;;;8.70;;
50745;SDS011;36711;51.972;21.204;2022-07-23T00:38:11;14.80;;;9.50;;
50745;SDS011;36711;51.972;21.204;2022-07-23T00:40:39;15.40;;;9.80;;
50745;SDS011;36711;51.972;21.204;2022-07-23T00:43:07;12.10;;;9.70;;
50745;SDS011;36711;51.972;21.204;2022-07-23T00:45:35;13.70;;;10.20;;
50745;SDS011;36711;51.972;21.204;2022-07-23T00:48:03;11.50;;;8.90;;
50745;SDS011;36711;51.972;21.204;2022-07-23T00:50:31;12.10;;;9.10;;
50745;SDS011;36711;51.972;21.204;2022-07-23T00:52:59;12.50;;;9.00;;
50745;SDS011;36711;51.972;21.204;2022-07-23T00:55:27;11.70;;;9.10;;
50745;SDS011;36711;51.972;21.204;2022-07-23T00:57:55;12.90;;;10.10;;
50745;SDS011;36711;51.972;21.204;2022-07-23T01:00:23;13.40;;;9.70;;
50745;SDS011;36711;51.972;21.204;2022-07-23T01:02:51;15.90;;;9.70;;
50745;SDS011;36711;51.972;21.204;2022-07-23T01:05:18;18.10;;;10.30;;
50745;SDS011;36711;51.972;21.204;2022-07-23T01:07:49;14.70;;;9.40;;
50745;SDS011;36711;51.972;21.204;2022-07-23T01:10:22;15.00;;;9.90;;
50745;SDS011;36711;51.972;21.204;2022-07-23T01:13:07;12.20;;;9.90;;
50745;SDS011;36711;51.972;21.204;2022-07-23T01:15:37;16.80;;;10.30;;
50745;SDS011;36711;51.972;21.204;2022-07-23T01:18:06;15.50;;;9.90;;
50745;SDS011;36711;51.972;21.204;2022-07-23T01:20:34;16.80;;;10.40;;
50745;SDS011;36711;51.972;21.204;2022-07-23T01:23:03;13.80;;;10.70;;
50745;SDS011;36711;51.972;21.204;2022-07-23T01:25:30;14.50;;;10.40;;
50745;SDS011;36711;51.972;21.204;2022-07-23T01:27:58;17.20;;;9.90;;
50745;SDS011;36711;51.972;21.204;2022-07-23T01:30:26;11.30;;;9.90;;
50745;SDS011;36711;51.972;21.204;2022-07-23T01:32:54;13.00;;;9.90;;
50745;SDS011;36711;51.972;21.204;2022-07-23T01:35:22;16.30;;;10.80;;
50745;SDS011;36711;51.972;21.204;2022-07-23T01:37:50;15.60;;;10.80;;
50745;SDS011;36711;51.972;21.204;2022-07-23T01:40:17;15.10;;;10.70;;
50745;SDS011;36711;51.972;21.204;2022-07-23T01:42:48;17.90;;;10.90;;
50745;SDS011;36711;51.972;21.204;2022-07-23T01:45:15;16.00;;;9.70;;
50745;SDS011;36711;51.972;21.204;2022-07-23T01:47:43;15.10;;;10.10;;
50745;SDS011;36711;51.972;21.204;2022-07-23T01:50:11;12.60;;;10.00;;
50745;SDS011;36711;51.972;21.204;2022-07-23T01:52:39;17.60;;;10.40;;
50745;SDS011;36711;51.972;21.204;2022-07-23T01:55:07;15.80;;;10.00;;
50745;SDS011;36711;51.972;21.204;2022-07-23T01:57:35;12.10;;;10.40;;
50745;SDS011;36711;51.972;21.204;2022-07-23T02:00:03;13.20;;;10.30;;
50745;SDS011;36711;51.972;21.204;2022-07-23T02:02:31;17.20;;;9.90;;
50745;SDS011;36711;51.972;21.204;2022-07-23T02:04:59;15.60;;;10.10;;
50745;SDS011;36711;51.972;21.204;2022-07-23T02:07:27;12.40;;;10.40;;
50745;SDS011;36711;51.972;21.204;2022-07-23T02:09:59;12.50;;;9.30;;
50745;SDS011;36711;51.972;21.204;2022-07-23T02:12:27;16.00;;;10.80;;
50745;SDS011;36711;51.972;21.204;2022-07-23T02:14:55;14.00;;;10.10;;
50745;SDS011;36711;51.972;21.204;2022-07-23T02:17:22;15.10;;;9.90;;
50745;SDS011;36711;51.972;21.204;2022-07-23T02:19:50;12.80;;;10.10;;
50745;SDS011;36711;51.972;21.204;2022-07-23T02:22:18;13.40;;;9.70;;
50745;SDS011;36711;51.972;21.204;2022-07-23T02:24:46;12.00;;;9.70;;
50745;SDS011;36711;51.972;21.204;2022-07-23T02:27:13;15.30;;;10.10;;
50745;SDS011;36711;51.972;21.204;2022-07-23T02:29:41;12.70;;;9.80;;
50745;SDS011;36711;51.972;21.204;2022-07-23T02:32:09;14.30;;;10.40;;
50745;SDS011;36711;51.972;21.204;2022-07-23T02:34:37;15.20;;;10.90;;
50745;SDS011;36711;51.972;21.204;2022-07-23T02:37:05;12.50;;;9.70;;
50745;SDS011;36711;51.972;21.204;2022-07-23T02:39:32;11.70;;;9.90;;
50745;SDS011;36711;51.972;21.204;2022-07-23T02:42:01;13.50;;;10.30;;
50745;SDS011;36711;51.972;21.204;2022-07-23T02:44:29;13.00;;;10.00;;
50745;SDS011;36711;51.972;21.204;2022-07-23T02:46:57;13.50;;;10.00;;
50745;SDS011;36711;51.972;21.204;2022-07-23T02:49:25;16.70;;;10.40;;
50745;SDS011;36711;51.972;21.204;2022-07-23T02:51:52;13.20;;;10.70;;
50745;SDS011;36711;51.972;21.204;2022-07-23T02:54:20;13.90;;;9.90;;
50745;SDS011;36711;51.972;21.204;2022-07-23T02:56:48;13.30;;;10.00;;
50745;SDS011;36711;51.972;21.204;2022-07-23T02:59:18;13.20;;;10.60;;
50745;SDS011;36711;51.972;21.204;2022-07-23T03:01:45;14.30;;;10.60;;
50745;SDS011;36711;51.972;21.204;2022-07-23T03:04:13;14.50;;;10.30;;
50745;SDS011;36711;51.972;21.204;2022-07-23T03:06:41;18.10;;;10.70;;
50745;SDS011;36711;51.972;21.204;2022-07-23T03:09:09;14.10;;;11.30;;
50745;SDS011;36711;51.972;21.204;2022-07-23T03:11:37;16.00;;;10.00;;
50745;SDS011;36711;51.972;21.204;2022-07-23T03:14:05;14.10;;;10.20;;
50745;SDS011;36711;51.972;21.204;2022-07-23T03:16:33;13.30;;;10.30;;
50745;SDS011;36711;51.972;21.204;2022-07-23T03:19:01;16.60;;;10.90;;
50745;SDS011;36711;51.972;21.204;2022-07-23T03:21:32;14.60;;;10.80;;
50745;SDS011;36711;51.972;21.204;2022-07-23T03:24:01;23.80;;;11.30;;
50745;SDS011;36711;51.972;21.204;2022-07-23T03:26:29;15.30;;;10.90;;
50745;SDS011;36711;51.972;21.204;2022-07-23T03:28:56;13.00;;;10.50;;
50745;SDS011;36711;51.972;21.204;2022-07-23T03:31:25;12.40;;;10.10;;
50745;SDS011;36711;51.972;21.204;2022-07-23T03:33:53;12.80;;;10.10;;
50745;SDS011;36711;51.972;21.204;2022-07-23T03:36:21;14.80;;;10.20;;
50745;SDS011;36711;51.972;21.204;2022-07-23T03:38:48;15.30;;;11.40;;
50745;SDS011;36711;51.972;21.204;2022-07-23T03:41:17;17.70;;;11.10;;
50745;SDS011;36711;51.972;21.204;2022-07-23T03:43:45;16.40;;;11.40;;
50745;SDS011;36711;51.972;21.204;2022-07-23T03:46:14;16.50;;;10.50;;
50745;SDS011;36711;51.972;21.204;2022-07-23T03:48:42;13.20;;;10.10;;
50745;SDS011;36711;51.972;21.204;2022-07-23T03:51:10;14.30;;;10.20;;
50745;SDS011;36711;51.972;21.204;2022-07-23T03:53:38;14.40;;;10.80;;
50745;SDS011;36711;51.972;21.204;2022-07-23T03:56:06;15.50;;;11.10;;
50745;SDS011;36711;51.972;21.204;2022-07-23T03:58:34;15.30;;;10.50;;
50745;SDS011;36711;51.972;21.204;2022-07-23T04:01:02;16.00;;;10.90;;
50745;SDS011;36711;51.972;21.204;2022-07-23T04:03:30;11.50;;;9.80;;
50745;SDS011;36711;51.972;21.204;2022-07-23T04:05:58;11.80;;;9.50;;
50745;SDS011;36711;51.972;21.204;2022-07-23T04:08:25;14.20;;;10.20;;
50745;SDS011;36711;51.972;21.204;2022-07-23T04:10:53;13.00;;;9.60;;
50745;SDS011;36711;51.972;21.204;2022-07-23T04:13:21;14.90;;;9.90;;
50745;SDS011;36711;51.972;21.204;2022-07-23T04:15:49;12.90;;;10.10;;
50745;SDS011;36711;51.972;21.204;2022-07-23T04:18:18;18.50;;;9.90;;
50745;SDS011;36711;51.972;21.204;2022-07-23T04:20:45;13.00;;;10.10;;
50745;SDS011;36711;51.972;21.204;2022-07-23T04:23:13;16.60;;;9.20;;
50745;SDS011;36711;51.972;21.204;2022-07-23T04:25:42;13.50;;;9.50;;
50745;SDS011;36711;51.972;21.204;2022-07-23T04:28:10;17.90;;;8.90;;
50745;SDS011;36711;51.972;21.204;2022-07-23T04:30:38;12.80;;;9.10;;
50745;SDS011;36711;51.972;21.204;2022-07-23T04:33:06;14.60;;;9.30;;
50745;SDS011;36711;51.972;21.204;2022-07-23T04:35:34;14.00;;;9.40;;
50745;SDS011;36711;51.972;21.204;2022-07-23T04:38:02;12.50;;;9.40;;
50745;SDS011;36711;51.972;21.204;2022-07-23T04:40:30;14.90;;;9.30;;
50745;SDS011;36711;51.972;21.204;2022-07-23T04:42:58;14.70;;;10.00;;
50745;SDS011;36711;51.972;21.204;2022-07-23T04:45:26;11.30;;;8.80;;
50745;SDS011;36711;51.972;21.204;2022-07-23T04:47:56;11.70;;;8.50;;
50745;SDS011;36711;51.972;21.204;2022-07-23T04:50:24;13.70;;;8.50;;
50745;SDS011;36711;51.972;21.204;2022-07-23T04:52:52;17.40;;;9.00;;
50745;SDS011;36711;51.972;21.204;2022-07-23T04:55:20;13.80;;;9.00;;
50745;SDS011;36711;51.972;21.204;2022-07-23T04:57:48;11.60;;;9.20;;
50745;SDS011;36711;51.972;21.204;2022-07-23T05:00:15;13.90;;;9.00;;
50745;SDS011;36711;51.972;21.204;2022-07-23T05:02:43;13.20;;;9.10;;
50745;SDS011;36711;51.972;21.204;2022-07-23T05:05:11;12.00;;;9.00;;
50745;SDS011;36711;51.972;21.204;2022-07-23T05:07:39;13.30;;;8.60;;
50745;SDS011;36711;51.972;21.204;2022-07-23T05:10:07;11.50;;;7.90;;
50745;SDS011;36711;51.972;21.204;2022-07-23T05:12:35;11.30;;;8.20;;
50745;SDS011;36711;51.972;21.204;2022-07-23T05:15:03;10.80;;;7.70;;
50745;SDS011;36711;51.972;21.204;2022-07-23T05:17:31;11.70;;;8.30;;
50745;SDS011;36711;51.972;21.204;2022-07-23T05:19:59;11.50;;;8.30;;
50745;SDS011;36711;51.972;21.204;2022-07-23T05:22:28;12.00;;;8.70;;
50745;SDS011;36711;51.972;21.204;2022-07-23T05:24:56;13.70;;;8.30;;
50745;SDS011;36711;51.972;21.204;2022-07-23T05:27:23;14.00;;;8.10;;
50745;SDS011;36711;51.972;21.204;2022-07-23T05:29:51;10.70;;;8.10;;
50745;SDS011;36711;51.972;21.204;2022-07-23T05:32:19;12.20;;;7.70;;
50745;SDS011;36711;51.972;21.204;2022-07-23T05:34:47;14.40;;;7.80;;
50745;SDS011;36711;51.972;21.204;2022-07-23T05:37:15;7.80;;;6.80;;
50745;SDS011;36711;51.972;21.204;2022-07-23T05:39:43;10.00;;;6.30;;
50745;SDS011;36711;51.972;21.204;2022-07-23T05:42:10;11.20;;;6.50;;
50745;SDS011;36711;51.972;21.204;2022-07-23T05:44:38;9.80;;;6.60;;
50745;SDS011;36711;51.972;21.204;2022-07-23T05:47:06;9.50;;;6.30;;
50745;SDS011;36711;51.972;21.204;2022-07-23T05:49:34;7.90;;;6.90;;
50745;SDS011;36711;51.972;21.204;2022-07-23T05:52:07;9.00;;;7.10;;
50745;SDS011;36711;51.972;21.204;2022-07-23T05:54:35;12.00;;;7.60;;
50745;SDS011;36711;51.972;21.204;2022-07-23T05:57:03;10.50;;;7.00;;
50745;SDS011;36711;51.972;21.204;2022-07-23T05:59:32;11.00;;;7.00;;
50745;SDS011;36711;51.972;21.204;2022-07-23T06:01:59;10.60;;;7.30;;
50745;SDS011;36711;51.972;21.204;2022-07-23T06:04:27;8.40;;;6.70;;
50745;SDS011;36711;51.972;21.204;2022-07-23T06:06:55;9.30;;;7.20;;
50745;SDS011;36711;51.972;21.204;2022-07-23T06:09:23;10.50;;;6.80;;
50745;SDS011;36711;51.972;21.204;2022-07-23T06:11:51;8.20;;;6.90;;
50745;SDS011;36711;51.972;21.204;2022-07-23T06:14:18;10.40;;;7.30;;
50745;SDS011;36711;51.972;21.204;2022-07-23T06:16:46;9.50;;;7.10;;
50745;SDS011;36711;51.972;21.204;2022-07-23T06:19:14;7.60;;;6.50;;
50745;SDS011;36711;51.972;21.204;2022-07-23T06:21:42;10.00;;;6.60;;
50745;SDS011;36711;51.972;21.204;2022-07-23T06:24:14;12.40;;;7.00;;
50745;SDS011;36711;51.972;21.204;2022-07-23T06:26:41;9.30;;;6.30;;
50745;SDS011;36711;51.972;21.204;2022-07-23T06:29:09;8.60;;;6.80;;
50745;SDS011;36711;51.972;21.204;2022-07-23T06:31:37;10.20;;;6.30;;
50745;SDS011;36711;51.972;21.204;2022-07-23T06:34:05;8.50;;;6.30;;
50745;SDS011;36711;51.972;21.204;2022-07-23T06:36:33;8.10;;;6.10;;
50745;SDS011;36711;51.972;21.204;2022-07-23T06:39:00;10.20;;;6.90;;
50745;SDS011;36711;51.972;21.204;2022-07-23T06:41:30;9.80;;;6.10;;
50745;SDS011;36711;51.972;21.204;2022-07-23T06:43:58;8.10;;;6.70;;
50745;SDS011;36711;51.972;21.204;2022-07-23T06:46:25;9.80;;;6.30;;
50745;SDS011;36711;51.972;21.204;2022-07-23T06:48:53;11.10;;;6.10;;
50745;SDS011;36711;51.972;21.204;2022-07-23T06:51:21;8.00;;;6.20;;
50745;SDS011;36711;51.972;21.204;2022-07-23T06:53:49;8.60;;;6.80;;
50745;SDS011;36711;51.972;21.204;2022-07-23T06:56:17;7.10;;;6.00;;
50745;SDS011;36711;51.972;21.204;2022-07-23T06:58:44;7.30;;;6.20;;
50745;SDS011;36711;51.972;21.204;2022-07-23T07:01:12;9.50;;;6.20;;
50745;SDS011;36711;51.972;21.204;2022-07-23T07:03:40;8.40;;;6.10;;
50745;SDS011;36711;51.972;21.204;2022-07-23T07:06:08;6.70;;;5.80;;
50745;SDS011;36711;51.972;21.204;2022-07-23T07:08:36;10.70;;;6.40;;
50745;SDS011;36711;51.972;21.204;2022-07-23T07:11:04;7.70;;;6.00;;
50745;SDS011;36711;51.972;21.204;2022-07-23T07:13:31;7.70;;;6.20;;
50745;SDS011;36711;51.972;21.204;2022-07-23T07:15:59;10.10;;;5.90;;
50745;SDS011;36711;51.972;21.204;2022-07-23T07:18:27;8.00;;;5.90;;
50745;SDS011;36711;51.972;21.204;2022-07-23T07:20:55;9.20;;;6.30;;
50745;SDS011;36711;51.972;21.204;2022-07-23T07:23:23;10.40;;;5.80;;
50745;SDS011;36711;51.972;21.204;2022-07-23T07:25:51;9.40;;;6.00;;
50745;SDS011;36711;51.972;21.204;2022-07-23T07:28:19;6.80;;;5.60;;
50745;SDS011;36711;51.972;21.204;2022-07-23T07:30:47;9.60;;;5.60;;
50745;SDS011;36711;51.972;21.204;2022-07-23T07:33:15;8.30;;;5.40;;
50745;SDS011;36711;51.972;21.204;2022-07-23T07:35:42;11.90;;;5.70;;
50745;SDS011;36711;51.972;21.204;2022-07-23T07:38:10;8.20;;;5.50;;
50745;SDS011;36711;51.972;21.204;2022-07-23T07:40:38;7.00;;;5.60;;
50745;SDS011;36711;51.972;21.204;2022-07-23T07:43:06;8.50;;;5.30;;
50745;SDS011;36711;51.972;21.204;2022-07-23T07:45:33;6.20;;;4.90;;
50745;SDS011;36711;51.972;21.204;2022-07-23T07:48:01;9.50;;;4.60;;
50745;SDS011;36711;51.972;21.204;2022-07-23T07:50:29;7.50;;;4.90;;
50745;SDS011;36711;51.972;21.204;2022-07-23T07:52:57;9.30;;;4.90;;
50745;SDS011;36711;51.972;21.204;2022-07-23T07:55:25;8.00;;;5.50;;
50745;SDS011;36711;51.972;21.204;2022-07-23T07:57:54;7.40;;;5.40;;
50745;SDS011;36711;51.972;21.204;2022-07-23T08:00:22;8.80;;;5.10;;
50745;SDS011;36711;51.972;21.204;2022-07-23T08:02:50;6.50;;;5.10;;
50745;SDS011;36711;51.972;21.204;2022-07-23T08:05:24;6.60;;;4.90;;
50745;SDS011;36711;51.972;21.204;2022-07-23T08:07:55;6.80;;;5.00;;
50745;SDS011;36711;51.972;21.204;2022-07-23T08:10:25;6.30;;;4.80;;
50745;SDS011;36711;51.972;21.204;2022-07-23T08:12:55;7.90;;;4.80;;
50745;SDS011;36711;51.972;21.204;2022-07-23T08:15:28;7.50;;;4.80;;
50745;SDS011;36711;51.972;21.204;2022-07-23T08:17:58;6.80;;;4.80;;
50745;SDS011;36711;51.972;21.204;2022-07-23T08:20:26;5.20;;;4.60;;
50745;SDS011;36711;51.972;21.204;2022-07-23T08:22:56;6.90;;;4.70;;
50745;SDS011;36711;51.972;21.204;2022-07-23T08:25:31;7.50;;;4.40;;
50745;SDS011;36711;51.972;21.204;2022-07-23T08:28:02;5.50;;;4.50;;
50745;SDS011;36711;51.972;21.204;2022-07-23T08:30:31;6.70;;;5.10;;
50745;SDS011;36711;51.972;21.204;2022-07-23T08:33:04;7.00;;;4.90;;
50745;SDS011;36711;51.972;21.204;2022-07-23T08:35:35;7.00;;;4.10;;
50745;SDS011;36711;51.972;21.204;2022-07-23T08:38:15;6.20;;;4.20;;
50745;SDS011;36711;51.972;21.204;2022-07-23T08:40:45;8.20;;;4.10;;
50745;SDS011;36711;51.972;21.204;2022-07-23T08:43:15;4.90;;;4.30;;
50745;SDS011;36711;51.972;21.204;2022-07-23T08:45:46;6.30;;;4.90;;
50745;SDS011;36711;51.972;21.204;2022-07-23T08:48:16;5.00;;;4.20;;
50745;SDS011;36711;51.972;21.204;2022-07-23T08:50:54;4.30;;;4.00;;
50745;SDS011;36711;51.972;21.204;2022-07-23T08:53:28;5.20;;;4.30;;
50745;SDS011;36711;51.972;21.204;2022-07-23T08:55:57;7.00;;;4.30;;
50745;SDS011;36711;51.972;21.204;2022-07-23T08:58:26;5.30;;;4.20;;
50745;SDS011;36711;51.972;21.204;2022-07-23T09:00:55;4.30;;;3.90;;
50745;SDS011;36711;51.972;21.204;2022-07-23T09:03:34;4.40;;;3.80;;
50745;SDS011;36711;51.972;21.204;2022-07-23T09:06:03;7.30;;;4.00;;
50745;SDS011;36711;51.972;21.204;2022-07-23T09:08:35;4.90;;;4.00;;
50745;SDS011;36711;51.972;21.204;2022-07-23T09:11:07;8.90;;;3.90;;
50745;SDS011;36711;51.972;21.204;2022-07-23T09:13:40;4.20;;;3.60;;
50745;SDS011;36711;51.972;21.204;2022-07-23T09:16:17;6.20;;;3.70;;
50745;SDS011;36711;51.972;21.204;2022-07-23T09:21:32;4.90;;;3.60;;
50745;SDS011;36711;51.972;21.204;2022-07-23T09:26:35;6.00;;;3.30;;
50745;SDS011;36711;51.972;21.204;2022-07-23T09:29:06;4.80;;;3.50;;
50745;SDS011;36711;51.972;21.204;2022-07-23T09:36:52;3.60;;;3.20;;
50745;SDS011;36711;51.972;21.204;2022-07-23T09:39:36;3.40;;;3.10;;
50745;SDS011;36711;51.972;21.204;2022-07-23T09:42:17;5.30;;;2.80;;
50745;SDS011;36711;51.972;21.204;2022-07-23T09:44:50;8.00;;;2.60;;
50745;SDS011;36711;51.972;21.204;2022-07-23T09:47:20;5.10;;;2.80;;
50745;SDS011;36711;51.972;21.204;2022-07-23T09:55:09;3.40;;;2.30;;
50745;SDS011;36711;51.972;21.204;2022-07-23T09:57:37;2.80;;;2.40;;
50745;SDS011;36711;51.972;21.204;2022-07-23T10:00:07;2.50;;;2.30;;
50745;SDS011;36711;51.972;21.204;2022-07-23T10:02:38;4.60;;;2.30;;
50745;SDS011;36711;51.972;21.204;2022-07-23T10:05:07;2.50;;;2.20;;
50745;SDS011;36711;51.972;21.204;2022-07-23T10:07:38;2.50;;;2.00;;
50745;SDS011;36711;51.972;21.204;2022-07-23T10:10:07;2.90;;;2.10;;
50745;SDS011;36711;51.972;21.204;2022-07-23T10:12:36;9.50;;;2.30;;
50745;SDS011;36711;51.972;21.204;2022-07-23T10:15:19;4.80;;;2.10;;
50745;SDS011;36711;51.972;21.204;2022-07-23T10:17:47;3.00;;;2.10;;
50745;SDS011;36711;51.972;21.204;2022-07-23T10:20:16;2.60;;;2.00;;
50745;SDS011;36711;51.972;21.204;2022-07-23T10:23:00;3.10;;;1.80;;
50745;SDS011;36711;51.972;21.204;2022-07-23T10:30:45;5.40;;;2.20;;
50745;SDS011;36711;51.972;21.204;2022-07-23T10:36:51;3.30;;;2.30;;
50745;SDS011;36711;51.972;21.204;2022-07-23T10:41:50;3.60;;;2.30;;
50745;SDS011;36711;51.972;21.204;2022-07-23T10:44:18;3.90;;;2.20;;
50745;SDS011;36711;51.972;21.204;2022-07-23T10:46:59;2.60;;;2.40;;
50745;SDS011;36711;51.972;21.204;2022-07-23T10:49:39;3.90;;;2.60;;
50745;SDS011;36711;51.972;21.204;2022-07-23T10:54:46;4.00;;;2.40;;
50745;SDS011;36711;51.972;21.204;2022-07-23T10:57:14;2.50;;;2.20;;
50745;SDS011;36711;51.972;21.204;2022-07-23T11:02:42;4.10;;;2.10;;
50745;SDS011;36711;51.972;21.204;2022-07-23T11:05:16;2.50;;;2.30;;
50745;SDS011;36711;51.972;21.204;2022-07-23T11:10:36;6.60;;;2.10;;
50745;SDS011;36711;51.972;21.204;2022-07-23T11:24:08;2.90;;;2.20;;
50745;SDS011;36711;51.972;21.204;2022-07-23T11:31:56;3.20;;;1.90;;
50745;SDS011;36711;51.972;21.204;2022-07-23T11:37:06;3.10;;;2.00;;
50745;SDS011;36711;51.972;21.204;2022-07-23T11:39:36;4.30;;;2.20;;
50745;SDS011;36711;51.972;21.204;2022-07-23T11:42:06;7.20;;;2.30;;
50745;SDS011;36711;51.972;21.204;2022-07-23T11:44:35;3.60;;;2.10;;
50745;SDS011;36711;51.972;21.204;2022-07-23T11:47:06;3.70;;;2.10;;
50745;SDS011;36711;51.972;21.204;2022-07-23T11:49:36;2.70;;;2.00;;
50745;SDS011;36711;51.972;21.204;2022-07-23T11:52:04;2.90;;;2.10;;
50745;SDS011;36711;51.972;21.204;2022-07-23T11:54:34;3.20;;;1.90;;
50745;SDS011;36711;51.972;21.204;2022-07-23T11:57:06;3.10;;;2.40;;
50745;SDS011;36711;51.972;21.204;2022-07-23T11:59:35;3.40;;;2.20;;
50745;SDS011;36711;51.972;21.204;2022-07-23T12:02:04;4.80;;;2.30;;
50745;SDS011;36711;51.972;21.204;2022-07-23T12:04:42;4.40;;;2.40;;
50745;SDS011;36711;51.972;21.204;2022-07-23T12:12:44;5.20;;;2.50;;
50745;SDS011;36711;51.972;21.204;2022-07-23T12:15:20;6.20;;;2.30;;
50745;SDS011;36711;51.972;21.204;2022-07-23T12:17:51;4.20;;;2.20;;
50745;SDS011;36711;51.972;21.204;2022-07-23T12:20:22;4.10;;;2.50;;
50745;SDS011;36711;51.972;21.204;2022-07-23T12:22:52;4.50;;;2.50;;
50745;SDS011;36711;51.972;21.204;2022-07-23T12:25:26;3.70;;;2.30;;
50745;SDS011;36711;51.972;21.204;2022-07-23T12:30:31;4.80;;;2.50;;
50745;SDS011;36711;51.972;21.204;2022-07-23T12:33:06;4.40;;;2.70;;
50745;SDS011;36711;51.972;21.204;2022-07-23T12:38:09;4.60;;;2.80;;
50745;SDS011;36711;51.972;21.204;2022-07-23T12:40:45;7.70;;;2.60;;
50745;SDS011;36711;51.972;21.204;2022-07-23T12:43:19;5.60;;;2.70;;
50745;SDS011;36711;51.972;21.204;2022-07-23T12:45:50;3.40;;;2.50;;
50745;SDS011;36711;51.972;21.204;2022-07-23T12:48:31;3.60;;;2.50;;
50745;SDS011;36711;51.972;21.204;2022-07-23T12:51:07;4.00;;;2.60;;
50745;SDS011;36711;51.972;21.204;2022-07-23T12:53:49;6.90;;;2.80;;
50745;SDS011;36711;51.972;21.204;2022-07-23T12:58:55;4.10;;;2.60;;
50745;SDS011;36711;51.972;21.204;2022-07-23T13:01:25;7.10;;;2.70;;
50745;SDS011;36711;51.972;21.204;2022-07-23T13:06:41;4.90;;;2.80;;
50745;SDS011;36711;51.972;21.204;2022-07-23T13:09:12;3.00;;;2.80;;
50745;SDS011;36711;51.972;21.204;2022-07-23T13:11:42;5.90;;;3.10;;
50745;SDS011;36711;51.972;21.204;2022-07-23T13:14:14;3.40;;;2.90;;
50745;SDS011;36711;51.972;21.204;2022-07-23T13:16:43;6.70;;;3.60;;
50745;SDS011;36711;51.972;21.204;2022-07-23T13:19:12;4.40;;;3.00;;
50745;SDS011;36711;51.972;21.204;2022-07-23T13:21:41;4.20;;;3.00;;
50745;SDS011;36711;51.972;21.204;2022-07-23T13:24:11;5.00;;;3.40;;
50745;SDS011;36711;51.972;21.204;2022-07-23T13:26:40;3.70;;;3.30;;
50745;SDS011;36711;51.972;21.204;2022-07-23T13:29:08;4.70;;;3.40;;
50745;SDS011;36711;51.972;21.204;2022-07-23T13:31:37;7.00;;;3.30;;
50745;SDS011;36711;51.972;21.204;2022-07-23T13:34:06;4.90;;;3.40;;
50745;SDS011;36711;51.972;21.204;2022-07-23T13:36:35;6.30;;;3.50;;
50745;SDS011;36711;51.972;21.204;2022-07-23T13:39:03;3.50;;;3.20;;
50745;SDS011;36711;51.972;21.204;2022-07-23T13:41:37;5.90;;;3.30;;
50745;SDS011;36711;51.972;21.204;2022-07-23T13:44:05;5.30;;;3.40;;
50745;SDS011;36711;51.972;21.204;2022-07-23T13:46:34;5.70;;;3.50;;
50745;SDS011;36711;51.972;21.204;2022-07-23T13:49:02;5.00;;;3.60;;
50745;SDS011;36711;51.972;21.204;2022-07-23T13:51:33;6.60;;;3.70;;
50745;SDS011;36711;51.972;21.204;2022-07-23T13:54:01;5.00;;;3.40;;
50745;SDS011;36711;51.972;21.204;2022-07-23T13:56:30;6.00;;;3.40;;
50745;SDS011;36711;51.972;21.204;2022-07-23T13:58:57;6.80;;;3.70;;
50745;SDS011;36711;51.972;21.204;2022-07-23T14:01:26;4.00;;;3.30;;
50745;SDS011;36711;51.972;21.204;2022-07-23T14:04:05;6.90;;;3.60;;
50745;SDS011;36711;51.972;21.204;2022-07-23T14:06:33;4.20;;;3.50;;
50745;SDS011;36711;51.972;21.204;2022-07-23T14:09:01;5.10;;;4.10;;
50745;SDS011;36711;51.972;21.204;2022-07-23T14:11:29;3.90;;;3.60;;
50745;SDS011;36711;51.972;21.204;2022-07-23T14:13:57;6.80;;;3.80;;
50745;SDS011;36711;51.972;21.204;2022-07-23T14:16:28;5.00;;;3.70;;
50745;SDS011;36711;51.972;21.204;2022-07-23T14:18:56;3.80;;;3.40;;
50745;SDS011;36711;51.972;21.204;2022-07-23T14:21:23;3.80;;;3.30;;
50745;SDS011;36711;51.972;21.204;2022-07-23T14:23:51;7.10;;;4.00;;
50745;SDS011;36711;51.972;21.204;2022-07-23T14:26:20;5.40;;;3.60;;
50745;SDS011;36711;51.972;21.204;2022-07-23T14:28:48;5.60;;;3.90;;
50745;SDS011;36711;51.972;21.204;2022-07-23T14:31:16;5.10;;;4.00;;
50745;SDS011;36711;51.972;21.204;2022-07-23T14:33:48;7.90;;;3.70;;
50745;SDS011;36711;51.972;21.204;2022-07-23T14:36:16;21.10;;;4.60;;
50745;SDS011;36711;51.972;21.204;2022-07-23T14:38:44;7.20;;;4.40;;
50745;SDS011;36711;51.972;21.204;2022-07-23T14:41:11;13.30;;;3.80;;
50745;SDS011;36711;51.972;21.204;2022-07-23T14:43:42;8.80;;;4.10;;
50745;SDS011;36711;51.972;21.204;2022-07-23T14:46:12;8.30;;;3.90;;
50745;SDS011;36711;51.972;21.204;2022-07-23T14:48:40;10.10;;;4.20;;
50745;SDS011;36711;51.972;21.204;2022-07-23T14:51:08;5.80;;;4.20;;
50745;SDS011;36711;51.972;21.204;2022-07-23T14:53:36;8.40;;;4.20;;
50745;SDS011;36711;51.972;21.204;2022-07-23T14:56:04;8.40;;;4.70;;
50745;SDS011;36711;51.972;21.204;2022-07-23T14:58:32;7.80;;;4.00;;
50745;SDS011;36711;51.972;21.204;2022-07-23T15:01:00;5.10;;;4.10;;
50745;SDS011;36711;51.972;21.204;2022-07-23T15:03:28;28.80;;;3.90;;
50745;SDS011;36711;51.972;21.204;2022-07-23T15:06:09;15.00;;;2.60;;
50745;SDS011;36711;51.972;21.204;2022-07-23T15:08:39;16.70;;;2.80;;
50745;SDS011;36711;51.972;21.204;2022-07-23T15:11:07;17.30;;;3.10;;
50745;SDS011;36711;51.972;21.204;2022-07-23T15:13:37;19.30;;;2.60;;
50745;SDS011;36711;51.972;21.204;2022-07-23T15:16:07;10.80;;;2.20;;
50745;SDS011;36711;51.972;21.204;2022-07-23T15:18:36;10.00;;;2.10;;
50745;SDS011;36711;51.972;21.204;2022-07-23T15:21:05;10.10;;;2.20;;
50745;SDS011;36711;51.972;21.204;2022-07-23T15:23:35;7.10;;;1.90;;
50745;SDS011;36711;51.972;21.204;2022-07-23T15:26:03;7.00;;;2.00;;
50745;SDS011;36711;51.972;21.204;2022-07-23T15:28:31;6.60;;;1.90;;
50745;SDS011;36711;51.972;21.204;2022-07-23T15:30:59;4.80;;;2.30;;
50745;SDS011;36711;51.972;21.204;2022-07-23T15:33:27;7.00;;;2.30;;
50745;SDS011;36711;51.972;21.204;2022-07-23T15:35:55;4.70;;;2.40;;
50745;SDS011;36711;51.972;21.204;2022-07-23T15:38:24;3.80;;;2.70;;
50745;SDS011;36711;51.972;21.204;2022-07-23T15:40:53;7.20;;;2.40;;
50745;SDS011;36711;51.972;21.204;2022-07-23T15:43:22;5.20;;;2.90;;
50745;SDS011;36711;51.972;21.204;2022-07-23T15:45:52;4.30;;;3.10;;
50745;SDS011;36711;51.972;21.204;2022-07-23T15:48:21;5.10;;;2.90;;